Time;durP1;ratioP1;P1;durP2;ratioP2;P2;SDS_P1;SDS_P2;PMS_P1;PMS_P2;Temp;Humidity;BMP_temperature;BMP_pressure;BME280_temperature;BME280_humidity;BME280_pressure;Samples;Min_cycle;Max_cycle;Signal;HPM_P1;HPM_P2
2024/01/18 00:00:01;;;;;;;;;;;5.60;99.90;;;;;;4884113;29;20007;-92
2024/01/18 00:02:31;;;;;;;;;;;5.50;99.90;;;;;;4884361;29;19941;-92
2024/01/18 00:04:56;;;;;;;;;;;5.40;99.90;;;;;;4885134;29;19915;-92
2024/01/18 00:07:22;;;;;;;;;;;5.30;99.90;;;;;;4884215;29;20374;-92
2024/01/18 00:09:47;;;;;;;;;;;5.20;99.90;;;;;;4884155;29;19976;-92
2024/01/18 00:12:13;;;;;;;;;;;5.20;99.90;;;;;;4885132;29;19916;-93
2024/01/18 00:14:39;;;;;;;;;;;5.20;99.90;;;;;;4883460;29;20007;-92
2024/01/18 00:17:04;;;;;;;;;;;5.20;99.90;;;;;;4884870;29;19922;-92
2024/01/18 00:19:30;;;;;;;;;;;5.10;99.90;;;;;;4884907;29;19920;-92
2024/01/18 00:21:55;;;;;;;;;;;4.90;99.90;;;;;;4884038;29;19927;-92
2024/01/18 00:24:21;;;;;;;;;;;4.90;99.90;;;;;;4883096;29;19916;-92
2024/01/18 00:26:46;;;;;;;;;;;4.80;99.90;;;;;;4883731;29;19916;-92
2024/01/18 00:29:12;;;;;;;;;;;4.80;99.90;;;;;;4883941;29;19916;-91
2024/01/18 00:31:39;;;;;;;;;;;4.80;99.90;;;;;;4883255;29;20392;-91
2024/01/18 00:34:04;;;;;;;;;;;4.80;99.90;;;;;;4883155;29;19915;-91
2024/01/18 00:36:30;;;;;;;;;;;4.70;99.90;;;;;;4883281;29;19971;-91
2024/01/18 00:38:55;;;;;;;;;;;4.70;99.90;;;;;;4884802;29;20280;-91
2024/01/18 00:41:21;;;;;;;;;;;4.50;99.90;;;;;;4886537;29;19927;-92
2024/01/18 00:43:47;;;;;;;;;;;4.50;99.90;;;;;;4886964;29;19916;-91
2024/01/18 00:46:13;;;;;;;;;;;4.50;99.90;;;;;;4886501;29;19927;-91
2024/01/18 00:48:38;;;;;;;;;;;4.30;99.90;;;;;;4886022;29;19916;-91
2024/01/18 00:51:04;;;;;;;;;;;3.80;99.90;;;;;;4885336;29;19916;-91
2024/01/18 00:53:30;;;;;;;;;;;3.50;99.90;;;;;;4885129;29;19920;-91
2024/01/18 00:55:56;;;;;;;;;;;3.40;99.90;;;;;;4884460;29;19916;-91
2024/01/18 00:58:21;;;;;;;;;;;3.20;99.90;;;;;;4887308;29;19979;-91
2024/01/18 01:04:15;;;;;;;;;;;3.10;99.90;;;;;;4887016;29;20313;-90
2024/01/18 01:06:41;;;;;;;;;;;2.90;99.90;;;;;;4885881;29;19919;-90
2024/01/18 01:09:06;;;;;;;;;;;2.60;99.90;;;;;;4885788;29;19967;-92
2024/01/18 01:11:32;;;;;;;;;;;2.40;99.90;;;;;;4885208;29;19916;-91
2024/01/18 01:13:57;;;;;;;;;;;2.20;99.90;;;;;;4884118;29;19915;-90
2024/01/18 01:19:52;;;;;;;;;;;2.00;99.90;;;;;;4885321;29;19944;-91
2024/01/18 01:22:18;;;;;;;;;;;1.80;99.90;;;;;;4883564;29;20379;-90
2024/01/18 01:24:43;;;;;;;;;;;1.70;99.90;;;;;;4884381;29;19920;-91
2024/01/18 01:27:09;;;;;;;;;;;1.70;99.90;;;;;;4884066;29;19919;-90
2024/01/18 01:29:35;;;;;;;;;;;1.60;99.90;;;;;;4883959;29;20006;-90
2024/01/18 01:32:01;;;;;;;;;;;1.50;99.90;;;;;;4868845;29;19915;-91
2024/01/18 01:34:26;;;;;;;;;;;1.40;99.90;;;;;;4884060;29;20372;-91
2024/01/18 01:36:52;;;;;;;;;;;1.30;99.90;;;;;;4884641;29;19944;-90
2024/01/18 01:39:17;;;;;;;;;;;1.30;99.90;;;;;;4886425;29;19951;-89
2024/01/18 01:41:43;;;;;;;;;;;1.20;99.90;;;;;;4900536;29;19912;-89
2024/01/18 01:44:08;;;;;;;;;;;1.10;99.90;;;;;;4900652;29;19900;-89
2024/01/18 01:46:34;;;;;;;;;;;1.10;99.90;;;;;;4899312;29;19967;-90
2024/01/18 01:49:01;;;;;;;;;;;1.10;99.90;;;;;;4899525;29;20296;-92
2024/01/18 01:51:32;;;;;;;;;;;1.10;99.90;;;;;;4883590;29;19932;-91
2024/01/18 01:53:58;;;;;;;;;;;1.10;99.90;;;;;;4884478;29;19916;-90
2024/01/18 01:56:23;;;;;;;;;;;1.00;99.90;;;;;;4885378;29;19979;-91
2024/01/18 01:58:50;;;;;;;;;;;1.10;99.90;;;;;;4884125;29;19927;-92
2024/01/18 02:01:15;;;;;;;;;;;1.00;99.90;;;;;;4884011;29;19983;-90
2024/01/18 02:03:41;;;;;;;;;;;1.00;99.90;;;;;;4882892;29;19916;-90
2024/01/18 02:06:07;;;;;;;;;;;1.00;99.90;;;;;;4882898;29;19918;-90
2024/01/18 02:08:33;;;;;;;;;;;1.00;99.90;;;;;;4883046;29;19920;-90
2024/01/18 02:10:59;;;;;;;;;;;1.00;99.90;;;;;;4882335;29;20407;-90
2024/01/18 02:13:25;;;;;;;;;;;1.00;99.90;;;;;;4882698;29;19971;-90
2024/01/18 02:15:50;;;;;;;;;;;1.00;99.90;;;;;;4882719;29;20280;-89
2024/01/18 02:18:16;;;;;;;;;;;1.00;99.90;;;;;;4881424;29;19923;-90
2024/01/18 02:20:42;;;;;;;;;;;1.00;99.90;;;;;;4882725;29;19972;-89
2024/01/18 02:23:08;;;;;;;;;;;1.00;99.90;;;;;;4882253;29;19959;-91
2024/01/18 02:25:34;;;;;;;;;;;1.00;99.90;;;;;;4882771;29;19916;-91
2024/01/18 02:27:59;;;;;;;;;;;1.00;99.90;;;;;;4882162;29;19926;-90
2024/01/18 02:30:25;;;;;;;;;;;0.90;99.90;;;;;;4882788;29;20450;-90
2024/01/18 02:32:51;;;;;;;;;;;1.00;99.90;;;;;;4882194;29;19939;-91
2024/01/18 02:35:17;;;;;;;;;;;0.90;99.90;;;;;;4866774;29;20331;-89
2024/01/18 02:37:42;;;;;;;;;;;0.90;99.90;;;;;;4882272;29;19922;-90
2024/01/18 02:40:08;;;;;;;;;;;0.90;99.90;;;;;;4882524;29;19922;-90
2024/01/18 02:42:34;;;;;;;;;;;0.80;99.90;;;;;;4881791;29;20366;-89
2024/01/18 02:45:02;;;;;;;;;;;0.80;99.90;;;;;;4882364;29;19993;-90
2024/01/18 02:47:28;;;;;;;;;;;0.90;99.90;;;;;;4882026;29;19941;-90
2024/01/18 02:49:55;;;;;;;;;;;0.90;99.90;;;;;;4882033;29;19920;-91
2024/01/18 02:52:20;;;;;;;;;;;0.90;99.90;;;;;;4882036;29;20324;-89
2024/01/18 02:54:46;;;;;;;;;;;1.00;99.90;;;;;;4881260;29;19962;-90
2024/01/18 02:57:12;;;;;;;;;;;1.00;99.90;;;;;;4880784;29;20245;-90
2024/01/18 02:59:37;;;;;;;;;;;1.00;99.90;;;;;;4881807;29;20332;-90
2024/01/18 03:02:03;;;;;;;;;;;1.00;99.90;;;;;;4881640;29;19955;-89
2024/01/18 03:04:28;;;;;;;;;;;1.00;99.90;;;;;;4881607;29;19916;-89
2024/01/18 03:06:54;;;;;;;;;;;0.90;99.90;;;;;;4882418;29;20368;-90
2024/01/18 03:09:20;;;;;;;;;;;0.90;99.90;;;;;;4882290;29;19935;-90
2024/01/18 03:11:45;;;;;;;;;;;0.90;99.90;;;;;;4882433;29;19966;-90
2024/01/18 03:14:11;;;;;;;;;;;0.90;99.90;;;;;;4882332;29;19927;-90
2024/01/18 03:16:42;;;;;;;;;;;0.90;99.90;;;;;;4881805;29;19920;-90
2024/01/18 03:19:12;;;;;;;;;;;1.00;99.90;;;;;;4881450;29;19915;-90
2024/01/18 03:21:37;;;;;;;;;;;1.00;99.90;;;;;;4881687;29;19916;-90
2024/01/18 03:24:03;;;;;;;;;;;1.00;99.90;;;;;;4881642;29;19916;-91
2024/01/18 03:26:29;;;;;;;;;;;1.00;99.90;;;;;;4881419;29;19972;-90
2024/01/18 03:28:55;;;;;;;;;;;0.90;99.90;;;;;;4881702;29;20075;-91
2024/01/18 03:31:20;;;;;;;;;;;0.90;99.90;;;;;;4881556;29;20003;-91
2024/01/18 03:33:46;;;;;;;;;;;1.00;99.90;;;;;;4880576;29;19919;-90
2024/01/18 03:36:12;;;;;;;;;;;1.00;99.90;;;;;;4882531;29;19999;-90
2024/01/18 03:38:37;;;;;;;;;;;1.00;99.90;;;;;;4883085;29;19927;-91
2024/01/18 03:41:03;;;;;;;;;;;1.00;99.90;;;;;;4880746;29;20006;-90
2024/01/18 03:43:29;;;;;;;;;;;1.00;99.90;;;;;;4881717;29;19923;-90
2024/01/18 03:45:54;;;;;;;;;;;1.00;99.90;;;;;;4882350;29;20030;-91
2024/01/18 03:48:20;;;;;;;;;;;1.00;99.90;;;;;;4882524;29;19920;-91
2024/01/18 03:50:45;;;;;;;;;;;1.10;99.90;;;;;;4882444;29;19942;-92
2024/01/18 03:53:11;;;;;;;;;;;1.00;99.90;;;;;;4881961;29;19927;-90
2024/01/18 03:55:37;;;;;;;;;;;1.00;99.90;;;;;;4882365;29;20384;-89
2024/01/18 03:58:03;;;;;;;;;;;1.00;99.90;;;;;;4880419;29;19923;-90
2024/01/18 04:00:29;;;;;;;;;;;1.00;99.90;;;;;;4881302;29;20352;-90
2024/01/18 04:02:54;;;;;;;;;;;1.00;99.90;;;;;;4881493;29;19916;-91
2024/01/18 04:05:20;;;;;;;;;;;1.00;99.90;;;;;;4881045;29;19995;-90
2024/01/18 04:07:45;;;;;;;;;;;1.00;99.90;;;;;;4880275;29;19968;-90
2024/01/18 04:10:11;;;;;;;;;;;1.00;99.90;;;;;;4880208;29;19915;-88
2024/01/18 04:12:37;;;;;;;;;;;1.00;99.90;;;;;;4863753;29;20632;-90
2024/01/18 04:15:39;;;;;;;;;;;1.00;99.90;;;;;;4882729;29;19916;-90
2024/01/18 04:18:05;;;;;;;;;;;0.90;99.90;;;;;;4883284;29;19920;-90
2024/01/18 04:20:31;;;;;;;;;;;0.80;99.90;;;;;;4882040;29;20562;-89
2024/01/18 04:22:56;;;;;;;;;;;0.80;99.90;;;;;;4884857;29;19915;-90
2024/01/18 04:25:22;;;;;;;;;;;0.80;99.90;;;;;;4884531;29;20404;-90
2024/01/18 04:27:47;;;;;;;;;;;0.70;99.90;;;;;;4884467;29;19967;-90
2024/01/18 04:30:13;;;;;;;;;;;0.80;99.90;;;;;;4884011;29;19955;-90
2024/01/18 04:32:38;;;;;;;;;;;0.70;99.90;;;;;;4883948;29;19922;-90
2024/01/18 04:35:04;;;;;;;;;;;0.70;99.90;;;;;;4867842;29;19915;-90
2024/01/18 04:37:30;;;;;;;;;;;0.70;99.90;;;;;;4882831;29;19920;-90
2024/01/18 04:39:56;;;;;;;;;;;0.70;99.90;;;;;;4883149;29;20432;-89
2024/01/18 04:42:21;;;;;;;;;;;0.70;99.90;;;;;;4883216;29;20712;-89
2024/01/18 04:44:47;;;;;;;;;;;0.70;99.90;;;;;;4883869;29;20010;-89
2024/01/18 04:47:12;;;;;;;;;;;0.70;99.90;;;;;;4883098;29;19923;-90
2024/01/18 04:49:38;;;;;;;;;;;0.70;99.90;;;;;;4883106;29;19990;-91
2024/01/18 04:52:04;;;;;;;;;;;0.70;99.90;;;;;;4883233;29;19919;-90
2024/01/18 04:54:29;;;;;;;;;;;0.80;99.90;;;;;;4883374;29;19959;-89
2024/01/18 04:56:55;;;;;;;;;;;0.80;99.90;;;;;;4883280;29;19922;-89
2024/01/18 04:59:20;;;;;;;;;;;0.70;99.90;;;;;;4883180;29;19938;-91
2024/01/18 05:01:47;;;;;;;;;;;0.80;99.90;;;;;;4883977;29;19919;-89
2024/01/18 05:07:41;;;;;;;;;;;0.70;99.90;;;;;;4884532;29;19923;-90
2024/01/18 05:10:08;;;;;;;;;;;0.70;99.90;;;;;;4883596;29;19920;-90
2024/01/18 05:12:34;;;;;;;;;;;0.70;99.90;;;;;;4883473;29;19961;-89
2024/01/18 05:15:00;;;;;;;;;;;0.70;99.90;;;;;;4882727;29;19920;-89
2024/01/18 05:17:46;;;;;;;;;;;0.70;99.90;;;;;;4884350;29;20022;-90
2024/01/18 05:20:12;;;;;;;;;;;0.70;99.90;;;;;;4883126;29;20333;-90
2024/01/18 05:22:38;;;;;;;;;;;0.70;99.90;;;;;;4881896;29;19947;-89
2024/01/18 05:25:05;;;;;;;;;;;0.70;99.90;;;;;;4882562;29;19958;-90
2024/01/18 05:27:30;;;;;;;;;;;0.70;99.90;;;;;;4882786;29;19931;-90
2024/01/18 05:29:56;;;;;;;;;;;0.80;99.90;;;;;;4883383;29;20006;-91
2024/01/18 05:32:22;;;;;;;;;;;0.70;99.90;;;;;;4883543;29;20347;-89
2024/01/18 05:34:48;;;;;;;;;;;0.70;99.90;;;;;;4883066;29;20269;-90
2024/01/18 05:37:14;;;;;;;;;;;0.60;99.90;;;;;;4882388;29;19916;-89
2024/01/18 05:39:39;;;;;;;;;;;0.50;99.90;;;;;;4882527;29;19971;-89
2024/01/18 05:42:05;;;;;;;;;;;0.40;99.90;;;;;;4882628;29;19919;-90
2024/01/18 05:44:31;;;;;;;;;;;0.30;99.90;;;;;;4882516;29;19920;-89
2024/01/18 05:47:18;;;;;;;;;;;0.20;99.90;;;;;;4882548;29;19916;-89
2024/01/18 05:49:44;;;;;;;;;;;0.20;99.90;;;;;;4867550;29;19916;-90
2024/01/18 05:52:09;;;;;;;;;;;0.10;99.90;;;;;;4883001;29;20279;-89
2024/01/18 05:54:35;;;;;;;;;;;0.20;99.90;;;;;;4883140;29;19912;-89
2024/01/18 05:57:01;;;;;;;;;;;0.20;99.90;;;;;;4881976;29;20728;-89
2024/01/18 05:59:30;;;;;;;;;;;0.20;99.90;;;;;;4881319;29;19920;-90
2024/01/18 06:01:56;;;;;;;;;;;0.10;99.90;;;;;;4881633;29;19927;-89
2024/01/18 06:04:24;;;;;;;;;;;0.20;99.90;;;;;;4881505;29;19916;-89
2024/01/18 06:06:49;;;;;;;;;;;0.20;99.90;;;;;;4881118;29;19955;-89
2024/01/18 06:09:16;;;;;;;;;;;0.20;99.90;;;;;;4881157;29;19916;-88
2024/01/18 06:11:42;;;;;;;;;;;0.20;99.90;;;;;;4865130;29;20002;-88
2024/01/18 06:14:08;;;;;;;;;;;0.20;99.90;;;;;;4880750;29;20426;-88
2024/01/18 06:16:34;;;;;;;;;;;0.20;99.90;;;;;;4880788;29;19916;-88
2024/01/18 06:18:59;;;;;;;;;;;0.20;99.90;;;;;;4865054;29;19961;-89
2024/01/18 06:21:25;;;;;;;;;;;0.20;99.90;;;;;;4881436;29;20754;-88
2024/01/18 06:23:50;;;;;;;;;;;0.20;99.90;;;;;;4878506;29;20261;-88
2024/01/18 06:26:16;;;;;;;;;;;0.20;99.90;;;;;;4880987;29;19923;-89
2024/01/18 06:28:42;;;;;;;;;;;0.20;99.90;;;;;;4881754;29;19967;-89
2024/01/18 06:34:37;;;;;;;;;;;0.10;99.90;;;;;;4882104;29;20303;-89
2024/01/18 06:37:03;;;;;;;;;;;0.20;99.90;;;;;;4880015;29;19920;-89
2024/01/18 06:39:28;;;;;;;;;;;0.20;99.90;;;;;;4880169;29;20283;-88
2024/01/18 06:41:54;;;;;;;;;;;0.20;99.90;;;;;;4880333;29;19923;-89
2024/01/18 06:44:19;;;;;;;;;;;0.20;99.90;;;;;;4880331;29;19928;-88
2024/01/18 06:46:45;;;;;;;;;;;0.10;99.90;;;;;;4881769;29;19947;-88
2024/01/18 06:49:11;;;;;;;;;;;0.10;99.90;;;;;;4879722;29;20689;-89
2024/01/18 06:51:39;;;;;;;;;;;0.10;99.90;;;;;;4880150;29;19916;-89
2024/01/18 06:54:04;;;;;;;;;;;0.10;99.90;;;;;;4880519;29;19951;-88
2024/01/18 06:56:30;;;;;;;;;;;0.10;99.90;;;;;;4880068;29;19981;-89
2024/01/18 06:58:55;;;;;;;;;;;0.10;99.90;;;;;;4880704;29;19943;-90
2024/01/18 07:01:22;;;;;;;;;;;0.10;99.90;;;;;;4880433;29;19923;-90
2024/01/18 07:03:48;;;;;;;;;;;0.10;99.90;;;;;;4881411;29;19923;-90
2024/01/18 07:06:14;;;;;;;;;;;0.10;99.90;;;;;;4881903;29;19955;-89
2024/01/18 07:08:40;;;;;;;;;;;0.10;99.90;;;;;;4881254;29;19920;-90
2024/01/18 07:11:06;;;;;;;;;;;0.10;99.90;;;;;;4881428;29;20006;-89
2024/01/18 07:13:31;;;;;;;;;;;0.10;99.90;;;;;;4882246;29;20280;-89
2024/01/18 07:15:57;;;;;;;;;;;0.10;99.90;;;;;;4880338;29;20597;-87
2024/01/18 07:18:23;;;;;;;;;;;0.10;99.90;;;;;;4878634;29;19920;-87
2024/01/18 07:20:48;;;;;;;;;;;0.00;99.90;;;;;;4877633;29;19959;-87
2024/01/18 07:23:14;;;;;;;;;;;0.00;99.90;;;;;;4877625;29;20383;-86
2024/01/18 07:25:40;;;;;;;;;;;0.00;99.90;;;;;;4877943;29;19924;-87
2024/01/18 07:28:06;;;;;;;;;;;0.00;99.90;;;;;;4877463;29;19938;-86
2024/01/18 07:30:31;;;;;;;;;;;0.00;99.90;;;;;;4877165;29;19915;-87
2024/01/18 07:32:57;;;;;;;;;;;0.00;99.90;;;;;;4874239;29;19916;-86
2024/01/18 07:35:22;;;;;;;;;;;0.00;99.90;;;;;;4877696;29;19923;-86
2024/01/18 07:37:48;;;;;;;;;;;-0.10;99.90;;;;;;4877538;29;19942;-87
2024/01/18 07:40:14;;;;;;;;;;;-0.10;99.90;;;;;;4876879;29;20637;-87
2024/01/18 07:42:40;;;;;;;;;;;-0.10;99.90;;;;;;4877364;29;20399;-87
2024/01/18 07:45:07;;;;;;;;;;;-0.10;99.90;;;;;;4877848;29;19916;-86
2024/01/18 07:47:33;;;;;;;;;;;-0.10;99.90;;;;;;4876837;29;19916;-87
2024/01/18 07:49:59;;;;;;;;;;;-0.10;99.90;;;;;;4877891;29;19920;-87
2024/01/18 07:52:25;;;;;;;;;;;-0.10;99.90;;;;;;4877518;29;20320;-86
2024/01/18 07:54:51;;;;;;;;;;;-0.20;99.90;;;;;;4877966;29;19980;-86
2024/01/18 07:57:17;;;;;;;;;;;-0.20;99.90;;;;;;4876553;29;19999;-85
2024/01/18 07:59:42;;;;;;;;;;;-0.20;99.90;;;;;;4876915;29;19916;-86
2024/01/18 08:02:08;;;;;;;;;;;-0.20;99.90;;;;;;4877112;29;19931;-86
2024/01/18 08:04:34;;;;;;;;;;;-0.30;99.90;;;;;;4877252;29;19920;-87
2024/01/18 08:06:59;;;;;;;;;;;-0.30;99.90;;;;;;4876746;29;20384;-88
2024/01/18 08:09:25;;;;;;;;;;;-0.40;99.90;;;;;;4876365;29;20019;-89
2024/01/18 08:11:51;;;;;;;;;;;-0.40;99.90;;;;;;4861535;29;19920;-88
2024/01/18 08:14:17;;;;;;;;;;;-0.40;99.90;;;;;;4877037;29;19922;-86
2024/01/18 08:16:44;;;;;;;;;;;-0.40;99.90;;;;;;4877238;29;19963;-86
2024/01/18 08:19:09;;;;;;;;;;;-0.50;99.90;;;;;;4861410;29;19930;-88
2024/01/18 08:21:43;;;;;;;;;;;-0.50;99.90;;;;;;4877099;29;19923;-89
2024/01/18 08:24:08;;;;;;;;;;;-0.60;99.90;;;;;;4861574;29;19916;-88
2024/01/18 08:26:34;;;;;;;;;;;-0.60;99.90;;;;;;4876483;29;20598;-89
2024/01/18 08:29:00;;;;;;;;;;;-0.60;99.90;;;;;;4876560;29;19920;-88
2024/01/18 08:31:27;;;;;;;;;;;-0.60;99.90;;;;;;4876585;29;19955;-86
2024/01/18 08:33:53;;;;;;;;;;;-0.70;99.90;;;;;;4876316;29;19986;-86
2024/01/18 08:36:19;;;;;;;;;;;-0.70;99.90;;;;;;4876930;29;20007;-88
2024/01/18 08:39:09;;;;;;;;;;;-0.80;99.90;;;;;;4876685;29;19951;-87
2024/01/18 08:41:35;;;;;;;;;;;-0.80;99.90;;;;;;4876281;29;20008;-86
2024/01/18 08:44:00;;;;;;;;;;;-0.80;99.90;;;;;;4876892;29;20384;-87
2024/01/18 08:46:26;;;;;;;;;;;-0.90;99.90;;;;;;4861261;29;20010;-86
2024/01/18 08:48:52;;;;;;;;;;;-1.00;99.90;;;;;;4876812;29;19916;-85
2024/01/18 08:51:18;;;;;;;;;;;-1.00;99.90;;;;;;4877035;29;20402;-87
2024/01/18 08:53:44;;;;;;;;;;;-1.00;99.90;;;;;;4877495;29;19965;-86
2024/01/18 08:56:19;;;;;;;;;;;-1.10;99.90;;;;;;4861749;29;19919;-85
2024/01/18 08:58:45;;;;;;;;;;;-1.10;99.90;;;;;;4877957;29;19923;-88
2024/01/18 09:01:10;;;;;;;;;;;-1.10;99.90;;;;;;4880871;29;19923;-87
2024/01/18 09:03:36;;;;;;;;;;;-1.10;99.90;;;;;;4881117;29;19920;-87
2024/01/18 09:06:02;;;;;;;;;;;-1.10;99.90;;;;;;4880602;29;20312;-87
2024/01/18 09:08:28;;;;;;;;;;;-1.20;99.90;;;;;;4880353;29;20360;-87
2024/01/18 09:10:54;;;;;;;;;;;-1.20;99.90;;;;;;4880282;29;19927;-86
2024/01/18 09:13:20;;;;;;;;;;;-1.20;99.90;;;;;;4880007;29;19975;-87
2024/01/18 09:15:47;;;;;;;;;;;-1.20;99.90;;;;;;4879826;29;19920;-87
2024/01/18 09:18:13;;;;;;;;;;;-1.20;99.90;;;;;;4863445;29;19919;-87
2024/01/18 09:20:40;;;;;;;;;;;-1.20;99.90;;;;;;4879360;29;19923;-87
2024/01/18 09:23:05;;;;;;;;;;;-1.20;99.90;;;;;;4879906;29;19973;-86
2024/01/18 09:25:31;;;;;;;;;;;-1.20;99.90;;;;;;4879958;29;20011;-87
2024/01/18 09:27:56;;;;;;;;;;;-1.10;99.90;;;;;;4880360;29;20386;-87
2024/01/18 09:30:23;;;;;;;;;;;-1.10;99.90;;;;;;4879355;29;20558;-88
2024/01/18 09:32:49;;;;;;;;;;;-1.00;99.90;;;;;;4880304;29;20376;-87
2024/01/18 09:35:14;;;;;;;;;;;-1.00;99.90;;;;;;4880302;29;19923;-86
2024/01/18 09:37:40;;;;;;;;;;;-1.00;99.90;;;;;;4864863;29;19927;-86
2024/01/18 09:40:09;;;;;;;;;;;-1.00;99.90;;;;;;4880371;29;19919;-86
2024/01/18 09:42:35;;;;;;;;;;;-1.00;99.90;;;;;;4878920;29;19924;-87
2024/01/18 09:45:05;;;;;;;;;;;-1.00;99.90;;;;;;4879378;29;20113;-87
2024/01/18 09:47:30;;;;;;;;;;;-1.10;99.90;;;;;;4880101;29;19920;-87
2024/01/18 09:49:58;;;;;;;;;;;-1.00;99.90;;;;;;4878728;29;19923;-86
2024/01/18 09:52:23;;;;;;;;;;;-1.10;99.90;;;;;;4878918;29;19912;-86
2024/01/18 09:54:49;;;;;;;;;;;-1.10;99.90;;;;;;4878086;29;19916;-86
2024/01/18 09:57:18;;;;;;;;;;;-1.10;99.90;;;;;;4864467;29;19916;-86
2024/01/18 09:59:44;;;;;;;;;;;-1.10;99.90;;;;;;4879316;29;19923;-86
2024/01/18 10:02:10;;;;;;;;;;;-1.10;99.90;;;;;;4879575;29;19927;-86
2024/01/18 10:04:36;;;;;;;;;;;-1.20;99.90;;;;;;4879182;29;19943;-87
2024/01/18 10:07:01;;;;;;;;;;;-1.30;99.90;;;;;;4878182;29;19919;-86
2024/01/18 10:09:28;;;;;;;;;;;-1.30;99.90;;;;;;4878298;29;19975;-86
2024/01/18 10:11:53;;;;;;;;;;;-1.20;99.90;;;;;;4877435;29;19916;-86
2024/01/18 10:14:37;;;;;;;;;;;-1.30;99.90;;;;;;4878454;29;20075;-86
2024/01/18 10:17:03;;;;;;;;;;;-1.30;99.90;;;;;;4879197;29;20466;-86
2024/01/18 10:19:28;;;;;;;;;;;-1.40;99.90;;;;;;4878774;29;19920;-87
2024/01/18 10:21:54;;;;;;;;;;;-1.40;99.90;;;;;;4878897;29;19969;-87
2024/01/18 10:24:19;;;;;;;;;;;-1.40;99.90;;;;;;4878626;29;19924;-87
2024/01/18 10:26:46;;;;;;;;;;;-1.50;99.90;;;;;;4878300;29;19927;-87
2024/01/18 10:29:45;;;;;;;;;;;-1.50;99.90;;;;;;4878046;29;19922;-87
2024/01/18 10:32:11;;;;;;;;;;;-1.40;99.90;;;;;;4862433;29;19916;-87
2024/01/18 10:34:40;;;;;;;;;;;-1.50;99.90;;;;;;4878151;29;19926;-87
2024/01/18 10:37:05;;;;;;;;;;;-1.50;99.90;;;;;;4878472;29;20014;-87
2024/01/18 10:39:39;;;;;;;;;;;-1.50;99.90;;;;;;4878699;29;20019;-87
2024/01/18 10:42:07;;;;;;;;;;;-1.50;99.90;;;;;;4878881;29;20403;-87
2024/01/18 10:44:37;;;;;;;;;;;-1.40;99.90;;;;;;4878008;29;20014;-87
2024/01/18 10:47:06;;;;;;;;;;;-1.40;99.90;;;;;;4878078;29;19916;-86
2024/01/18 10:49:33;;;;;;;;;;;-1.20;99.90;;;;;;4877881;29;20018;-86
2024/01/18 10:51:59;;;;;;;;;;;-1.10;99.90;;;;;;4877957;29;19915;-87
2024/01/18 10:54:25;;;;;;;;;;;-1.10;99.90;;;;;;4878153;29;20585;-86
2024/01/18 10:56:50;;;;;;;;;;;-1.20;99.90;;;;;;4878642;29;20015;-87
2024/01/18 10:59:16;;;;;;;;;;;-1.10;99.90;;;;;;4877850;29;20402;-86
2024/01/18 11:01:41;;;;;;;;;;;-1.10;99.90;;;;;;4878082;29;19924;-87
2024/01/18 11:04:07;;;;;;;;;;;-1.10;99.90;;;;;;4878107;29;20369;-87
2024/01/18 11:06:34;;;;;;;;;;;-0.70;99.90;;;;;;4877338;29;19962;-87
2024/01/18 11:09:04;;;;;;;;;;;-1.10;99.90;;;;;;4877945;29;19916;-87
2024/01/18 11:11:31;;;;;;;;;;;-1.10;99.90;;;;;;4876985;29;19968;-86
2024/01/18 11:13:57;;;;;;;;;;;-1.20;99.90;;;;;;4877458;29;19959;-87
2024/01/18 11:16:22;;;;;;;;;;;-1.40;99.90;;;;;;4878149;29;20337;-87
2024/01/18 11:18:51;;;;;;;;;;;-1.40;99.90;;;;;;4878156;29;20025;-87
2024/01/18 11:21:17;;;;;;;;;;;-1.40;99.90;;;;;;4877269;29;20289;-87
2024/01/18 11:23:42;;;;;;;;;;;-1.30;99.90;;;;;;4877633;29;19972;-87
2024/01/18 11:26:17;;;;;;;;;;;-1.20;99.90;;;;;;4877698;29;19971;-87
2024/01/18 11:28:43;;;;;;;;;;;-1.20;99.90;;;;;;4877509;29;19923;-87
2024/01/18 11:31:09;;;;;;;;;;;-1.20;99.90;;;;;;4877067;29;19944;-87
2024/01/18 11:33:34;;;;;;;;;;;-1.20;99.90;;;;;;4861253;29;19968;-87
2024/01/18 11:36:00;;;;;;;;;;;-1.20;99.90;;;;;;4877028;29;19923;-87
2024/01/18 11:38:31;;;;;;;;;;;-1.30;99.90;;;;;;4876799;29;20759;-87
2024/01/18 11:41:26;;;;;;;;;;;-1.40;99.90;;;;;;4861450;29;19928;-87
2024/01/18 11:43:54;;;;;;;;;;;-1.40;99.90;;;;;;4874923;29;20380;-87
2024/01/18 11:46:37;;;;;;;;;;;-1.50;99.90;;;;;;4878559;29;19924;-87
2024/01/18 11:49:03;;;;;;;;;;;-1.40;99.90;;;;;;4876765;29;19924;-86
2024/01/18 11:51:29;;;;;;;;;;;-1.30;99.90;;;;;;4877103;29;19941;-87
2024/01/18 11:53:57;;;;;;;;;;;-1.30;99.90;;;;;;4877007;29;19919;-87
2024/01/18 11:56:23;;;;;;;;;;;-1.30;99.90;;;;;;4877034;29;19968;-87
2024/01/18 11:58:58;;;;;;;;;;;-1.20;99.90;;;;;;4876827;29;19923;-87
2024/01/18 12:04:53;;;;;;;;;;;-1.10;99.90;;;;;;4878420;29;20391;-86
2024/01/18 12:07:19;;;;;;;;;;;-1.30;99.90;;;;;;4862240;29;19916;-87
2024/01/18 12:09:45;;;;;;;;;;;-1.30;99.90;;;;;;4876201;29;19923;-87
2024/01/18 12:12:10;;;;;;;;;;;-1.30;99.90;;;;;;4875442;29;20368;-86
2024/01/18 12:14:40;;;;;;;;;;;-1.20;99.90;;;;;;4876068;29;19916;-86
2024/01/18 12:17:06;;;;;;;;;;;-1.30;99.90;;;;;;4875825;29;19916;-86
2024/01/18 12:19:33;;;;;;;;;;;-1.40;99.90;;;;;;4876648;29;19947;-86
2024/01/18 12:22:02;;;;;;;;;;;-1.40;99.90;;;;;;4876449;29;20391;-86
2024/01/18 12:24:28;;;;;;;;;;;-1.30;99.90;;;;;;4882162;29;20281;-86
2024/01/18 12:26:54;;;;;;;;;;;-1.20;99.90;;;;;;4879087;29;19991;-87
2024/01/18 12:29:39;;;;;;;;;;;-1.20;99.90;;;;;;4877155;29;19920;-87
2024/01/18 12:32:10;;;;;;;;;;;-1.20;99.90;;;;;;4878975;29;19915;-87
2024/01/18 12:34:36;;;;;;;;;;;-1.20;99.90;;;;;;4879003;29;20388;-87
2024/01/18 12:37:03;;;;;;;;;;;-1.20;99.90;;;;;;4880855;29;19919;-87
2024/01/18 12:39:32;;;;;;;;;;;-1.30;99.90;;;;;;4880378;29;20387;-87
2024/01/18 12:41:57;;;;;;;;;;;-1.40;99.90;;;;;;4879677;29;19942;-87
2024/01/18 12:44:23;;;;;;;;;;;-1.50;99.90;;;;;;4879897;29;20368;-87
2024/01/18 12:46:59;;;;;;;;;;;-1.50;99.90;;;;;;4880342;29;19911;-86
2024/01/18 12:49:25;;;;;;;;;;;-1.50;99.90;;;;;;4880804;29;19945;-87
2024/01/18 12:51:54;;;;;;;;;;;-1.50;99.90;;;;;;4881396;29;19919;-87
2024/01/18 12:54:24;;;;;;;;;;;-1.40;99.90;;;;;;4880170;29;19920;-86
2024/01/18 12:56:54;;;;;;;;;;;-1.40;99.90;;;;;;4881825;29;19983;-86
2024/01/18 12:59:19;;;;;;;;;;;-1.60;99.90;;;;;;4880641;29;19980;-86
2024/01/18 13:01:48;;;;;;;;;;;-1.60;99.90;;;;;;4864440;29;20466;-86
2024/01/18 13:04:13;;;;;;;;;;;-1.60;99.90;;;;;;4880106;29;19920;-86
2024/01/18 13:06:45;;;;;;;;;;;-1.60;99.90;;;;;;4864705;29;20060;-86
2024/01/18 13:09:15;;;;;;;;;;;-1.70;99.90;;;;;;4879570;29;19963;-86
2024/01/18 13:11:40;;;;;;;;;;;-1.70;99.90;;;;;;4880361;29;19916;-86
2024/01/18 13:14:35;;;;;;;;;;;-1.80;99.90;;;;;;4879495;29;20030;-86
2024/01/18 13:17:00;;;;;;;;;;;-1.70;99.90;;;;;;4878893;29;19926;-86
2024/01/18 13:19:27;;;;;;;;;;;-1.70;99.90;;;;;;4863384;29;19915;-86
2024/01/18 13:21:53;;;;;;;;;;;-1.80;99.90;;;;;;4880279;29;19920;-87
2024/01/18 13:24:19;;;;;;;;;;;-1.70;99.90;;;;;;4879853;29;19915;-86
2024/01/18 13:26:46;;;;;;;;;;;-1.80;99.90;;;;;;4879895;29;19978;-86
2024/01/18 13:29:18;;;;;;;;;;;-1.80;99.90;;;;;;4879137;29;19919;-86
2024/01/18 13:31:49;;;;;;;;;;;-1.80;99.90;;;;;;4879185;29;19962;-86
2024/01/18 13:34:15;;;;;;;;;;;-1.80;99.90;;;;;;4863991;29;20014;-86
2024/01/18 13:36:42;;;;;;;;;;;-1.90;99.90;;;;;;4878894;29;20002;-87
2024/01/18 13:39:09;;;;;;;;;;;-1.80;99.90;;;;;;4879359;29;19928;-86
2024/01/18 13:41:35;;;;;;;;;;;-1.80;99.90;;;;;;4879152;29;19927;-86
2024/01/18 13:44:02;;;;;;;;;;;-1.80;99.90;;;;;;4878995;29;20447;-87
2024/01/18 13:46:28;;;;;;;;;;;-1.90;99.90;;;;;;4877346;29;20002;-86
2024/01/18 13:48:54;;;;;;;;;;;-1.80;99.90;;;;;;4878561;29;20480;-87
2024/01/18 13:51:20;;;;;;;;;;;-1.80;99.90;;;;;;4878783;29;20003;-86
2024/01/18 13:53:50;;;;;;;;;;;-1.90;99.90;;;;;;4879056;29;20328;-86
2024/01/18 13:56:20;;;;;;;;;;;-1.90;99.90;;;;;;4878543;29;19916;-86
2024/01/18 13:58:46;;;;;;;;;;;-1.90;99.90;;;;;;4878219;29;19935;-86
2024/01/18 14:01:12;;;;;;;;;;;-1.90;99.90;;;;;;4863109;29;20645;-86
2024/01/18 14:03:41;;;;;;;;;;;-2.00;99.90;;;;;;4879854;29;19919;-86
2024/01/18 14:06:07;;;;;;;;;;;-2.00;99.90;;;;;;4878884;29;20010;-87
2024/01/18 14:08:33;;;;;;;;;;;-1.90;99.90;;;;;;4878545;29;20006;-86
2024/01/18 14:14:33;;;;;;;;;;;-1.90;99.90;;;;;;4880120;29;19922;-86
2024/01/18 14:16:59;;;;;;;;;;;-2.00;99.90;;;;;;4878598;29;19926;-86
2024/01/18 14:19:24;;;;;;;;;;;-1.90;99.90;;;;;;4878404;29;19915;-85
2024/01/18 14:21:50;;;;;;;;;;;-2.00;99.90;;;;;;4878872;29;20308;-86
2024/01/18 14:24:15;;;;;;;;;;;-1.90;99.90;;;;;;4878993;29;19940;-86
2024/01/18 14:26:41;;;;;;;;;;;-1.90;99.90;;;;;;4879302;29;20648;-86
2024/01/18 14:29:10;;;;;;;;;;;-1.90;99.90;;;;;;4878452;29;19923;-86
2024/01/18 14:31:36;;;;;;;;;;;-1.90;99.90;;;;;;4877966;29;19919;-86
2024/01/18 14:34:02;;;;;;;;;;;-2.00;99.90;;;;;;4878353;29;19916;-87
2024/01/18 14:36:28;;;;;;;;;;;-2.00;99.90;;;;;;4877761;29;19955;-86
2024/01/18 14:38:53;;;;;;;;;;;-2.00;99.90;;;;;;4862191;29;20360;-86
2024/01/18 14:41:19;;;;;;;;;;;-2.00;99.90;;;;;;4878182;29;20341;-86